sensor_id;sensor_type;location;lat;lon;timestamp;P1;durP1;ratioP1;P2;durP2;ratioP2
83282;SDS011;73190;50.780;5.658;2024-01-15T00:01:30;47.13;;;19.50;;
83282;SDS011;73190;50.780;5.658;2024-01-15T00:03:58;46.95;;;19.90;;
83282;SDS011;73190;50.780;5.658;2024-01-15T00:06:26;45.48;;;19.37;;
83282;SDS011;73190;50.780;5.658;2024-01-15T00:08:54;44.18;;;19.17;;
83282;SDS011;73190;50.780;5.658;2024-01-15T00:11:23;47.50;;;17.83;;
83282;SDS011;73190;50.780;5.658;2024-01-15T00:13:51;41.60;;;18.32;;
83282;SDS011;73190;50.780;5.658;2024-01-15T00:16:18;44.42;;;19.45;;
83282;SDS011;73190;50.780;5.658;2024-01-15T00:18:46;47.80;;;19.98;;
83282;SDS011;73190;50.780;5.658;2024-01-15T00:21:14;44.13;;;18.27;;
83282;SDS011;73190;50.780;5.658;2024-01-15T00:23:44;43.23;;;18.75;;
83282;SDS011;73190;50.780;5.658;2024-01-15T00:26:12;44.38;;;18.90;;
83282;SDS011;73190;50.780;5.658;2024-01-15T00:28:41;41.60;;;18.30;;
83282;SDS011;73190;50.780;5.658;2024-01-15T00:31:08;46.45;;;18.80;;
83282;SDS011;73190;50.780;5.658;2024-01-15T00:33:36;43.35;;;18.52;;
83282;SDS011;73190;50.780;5.658;2024-01-15T00:36:03;40.98;;;19.35;;
83282;SDS011;73190;50.780;5.658;2024-01-15T00:38:33;42.67;;;19.23;;
83282;SDS011;73190;50.780;5.658;2024-01-15T00:41:00;42.23;;;17.48;;
83282;SDS011;73190;50.780;5.658;2024-01-15T00:43:28;48.75;;;19.05;;
83282;SDS011;73190;50.780;5.658;2024-01-15T00:45:56;41.70;;;18.70;;
83282;SDS011;73190;50.780;5.658;2024-01-15T00:48:23;42.33;;;18.12;;
83282;SDS011;73190;50.780;5.658;2024-01-15T00:50:51;51.53;;;20.37;;
83282;SDS011;73190;50.780;5.658;2024-01-15T00:53:20;48.45;;;19.02;;
83282;SDS011;73190;50.780;5.658;2024-01-15T00:55:53;42.85;;;18.17;;
83282;SDS011;73190;50.780;5.658;2024-01-15T00:58:20;45.38;;;18.77;;
83282;SDS011;73190;50.780;5.658;2024-01-15T01:00:48;49.55;;;18.65;;
83282;SDS011;73190;50.780;5.658;2024-01-15T01:03:15;45.60;;;19.30;;
83282;SDS011;73190;50.780;5.658;2024-01-15T01:05:43;46.83;;;20.20;;
83282;SDS011;73190;50.780;5.658;2024-01-15T01:08:10;49.63;;;21.10;;
83282;SDS011;73190;50.780;5.658;2024-01-15T01:10:38;45.63;;;20.17;;
83282;SDS011;73190;50.780;5.658;2024-01-15T01:13:06;52.62;;;22.45;;
83282;SDS011;73190;50.780;5.658;2024-01-15T01:15:33;51.45;;;20.90;;
83282;SDS011;73190;50.780;5.658;2024-01-15T01:18:01;54.73;;;22.45;;
83282;SDS011;73190;50.780;5.658;2024-01-15T01:20:28;57.50;;;22.37;;
83282;SDS011;73190;50.780;5.658;2024-01-15T01:22:56;53.13;;;23.10;;
83282;SDS011;73190;50.780;5.658;2024-01-15T01:25:24;52.17;;;21.80;;
83282;SDS011;73190;50.780;5.658;2024-01-15T01:27:52;52.75;;;22.07;;
83282;SDS011;73190;50.780;5.658;2024-01-15T01:30:21;53.28;;;21.82;;
83282;SDS011;73190;50.780;5.658;2024-01-15T01:32:48;49.38;;;21.73;;
83282;SDS011;73190;50.780;5.658;2024-01-15T01:35:17;50.50;;;22.17;;
83282;SDS011;73190;50.780;5.658;2024-01-15T01:37:44;50.55;;;21.60;;
83282;SDS011;73190;50.780;5.658;2024-01-15T01:40:12;55.12;;;21.48;;
83282;SDS011;73190;50.780;5.658;2024-01-15T01:42:39;55.00;;;22.65;;
83282;SDS011;73190;50.780;5.658;2024-01-15T01:45:07;49.40;;;20.88;;
83282;SDS011;73190;50.780;5.658;2024-01-15T01:47:35;54.35;;;20.68;;
83282;SDS011;73190;50.780;5.658;2024-01-15T01:50:03;52.75;;;21.35;;
83282;SDS011;73190;50.780;5.658;2024-01-15T01:52:31;52.10;;;21.75;;
83282;SDS011;73190;50.780;5.658;2024-01-15T01:55:00;47.67;;;20.35;;
83282;SDS011;73190;50.780;5.658;2024-01-15T01:57:29;48.83;;;20.88;;
83282;SDS011;73190;50.780;5.658;2024-01-15T02:00:00;47.03;;;20.65;;
83282;SDS011;73190;50.780;5.658;2024-01-15T02:02:31;46.83;;;20.45;;
83282;SDS011;73190;50.780;5.658;2024-01-15T02:05:00;43.13;;;19.90;;
83282;SDS011;73190;50.780;5.658;2024-01-15T02:07:28;43.00;;;19.82;;
83282;SDS011;73190;50.780;5.658;2024-01-15T02:09:55;48.42;;;20.05;;
83282;SDS011;73190;50.780;5.658;2024-01-15T02:12:23;47.85;;;20.00;;
83282;SDS011;73190;50.780;5.658;2024-01-15T02:14:51;46.02;;;20.48;;
83282;SDS011;73190;50.780;5.658;2024-01-15T02:17:18;44.50;;;20.30;;
83282;SDS011;73190;50.780;5.658;2024-01-15T02:19:46;41.68;;;18.52;;
83282;SDS011;73190;50.780;5.658;2024-01-15T02:22:13;45.90;;;19.90;;
83282;SDS011;73190;50.780;5.658;2024-01-15T02:24:41;40.85;;;18.50;;
83282;SDS011;73190;50.780;5.658;2024-01-15T02:27:09;40.88;;;19.17;;
83282;SDS011;73190;50.780;5.658;2024-01-15T02:29:36;40.05;;;17.80;;
83282;SDS011;73190;50.780;5.658;2024-01-15T02:32:05;42.78;;;18.92;;
83282;SDS011;73190;50.780;5.658;2024-01-15T02:34:33;43.17;;;19.50;;
83282;SDS011;73190;50.780;5.658;2024-01-15T02:37:00;41.58;;;18.37;;
83282;SDS011;73190;50.780;5.658;2024-01-15T02:39:28;43.20;;;19.02;;
83282;SDS011;73190;50.780;5.658;2024-01-15T02:41:55;38.60;;;17.65;;
83282;SDS011;73190;50.780;5.658;2024-01-15T02:44:23;38.90;;;17.17;;
83282;SDS011;73190;50.780;5.658;2024-01-15T02:46:51;39.42;;;18.67;;
83282;SDS011;73190;50.780;5.658;2024-01-15T02:49:18;34.08;;;16.85;;
83282;SDS011;73190;50.780;5.658;2024-01-15T02:51:46;36.10;;;17.75;;
83282;SDS011;73190;50.780;5.658;2024-01-15T02:54:13;38.48;;;17.50;;
83282;SDS011;73190;50.780;5.658;2024-01-15T02:56:41;35.68;;;16.90;;
83282;SDS011;73190;50.780;5.658;2024-01-15T02:59:08;37.10;;;18.27;;
83282;SDS011;73190;50.780;5.658;2024-01-15T03:01:36;35.08;;;16.95;;
83282;SDS011;73190;50.780;5.658;2024-01-15T03:04:03;40.45;;;16.90;;
83282;SDS011;73190;50.780;5.658;2024-01-15T03:06:31;33.38;;;16.85;;
83282;SDS011;73190;50.780;5.658;2024-01-15T03:08:58;33.28;;;16.85;;
83282;SDS011;73190;50.780;5.658;2024-01-15T03:11:26;34.48;;;16.60;;
83282;SDS011;73190;50.780;5.658;2024-01-15T03:13:53;34.60;;;16.52;;
83282;SDS011;73190;50.780;5.658;2024-01-15T03:16:21;33.88;;;16.87;;
83282;SDS011;73190;50.780;5.658;2024-01-15T03:18:49;29.55;;;16.30;;
83282;SDS011;73190;50.780;5.658;2024-01-15T03:21:16;38.05;;;17.27;;
83282;SDS011;73190;50.780;5.658;2024-01-15T03:23:44;32.88;;;16.45;;
83282;SDS011;73190;50.780;5.658;2024-01-15T03:26:11;34.00;;;16.85;;
83282;SDS011;73190;50.780;5.658;2024-01-15T03:28:39;35.95;;;17.17;;
83282;SDS011;73190;50.780;5.658;2024-01-15T03:31:07;38.45;;;17.42;;
83282;SDS011;73190;50.780;5.658;2024-01-15T03:33:34;32.35;;;16.62;;
83282;SDS011;73190;50.780;5.658;2024-01-15T03:36:02;31.00;;;15.45;;
83282;SDS011;73190;50.780;5.658;2024-01-15T03:38:30;34.45;;;16.12;;
83282;SDS011;73190;50.780;5.658;2024-01-15T03:40:57;33.30;;;16.95;;
83282;SDS011;73190;50.780;5.658;2024-01-15T03:43:25;33.98;;;16.15;;
83282;SDS011;73190;50.780;5.658;2024-01-15T03:45:54;32.55;;;15.68;;
83282;SDS011;73190;50.780;5.658;2024-01-15T03:48:21;29.55;;;14.87;;
83282;SDS011;73190;50.780;5.658;2024-01-15T03:50:48;35.08;;;16.40;;
83282;SDS011;73190;50.780;5.658;2024-01-15T03:53:16;30.65;;;15.40;;
83282;SDS011;73190;50.780;5.658;2024-01-15T03:55:44;31.65;;;14.78;;
83282;SDS011;73190;50.780;5.658;2024-01-15T03:58:11;31.85;;;14.68;;
83282;SDS011;73190;50.780;5.658;2024-01-15T04:00:40;28.73;;;14.80;;
83282;SDS011;73190;50.780;5.658;2024-01-15T04:03:09;30.05;;;15.05;;
83282;SDS011;73190;50.780;5.658;2024-01-15T04:05:36;30.05;;;14.53;;
83282;SDS011;73190;50.780;5.658;2024-01-15T04:08:04;28.90;;;13.75;;
83282;SDS011;73190;50.780;5.658;2024-01-15T04:10:32;26.57;;;13.95;;
83282;SDS011;73190;50.780;5.658;2024-01-15T04:12:59;28.75;;;13.62;;
83282;SDS011;73190;50.780;5.658;2024-01-15T04:15:29;26.37;;;14.67;;
83282;SDS011;73190;50.780;5.658;2024-01-15T04:17:56;30.92;;;13.95;;
83282;SDS011;73190;50.780;5.658;2024-01-15T04:20:24;28.30;;;14.38;;
83282;SDS011;73190;50.780;5.658;2024-01-15T04:22:51;29.90;;;14.33;;
83282;SDS011;73190;50.780;5.658;2024-01-15T04:25:19;24.27;;;13.10;;
83282;SDS011;73190;50.780;5.658;2024-01-15T04:27:47;31.25;;;13.85;;
83282;SDS011;73190;50.780;5.658;2024-01-15T04:30:14;30.23;;;13.50;;
83282;SDS011;73190;50.780;5.658;2024-01-15T04:32:42;26.95;;;13.03;;
83282;SDS011;73190;50.780;5.658;2024-01-15T04:35:09;24.05;;;12.40;;
83282;SDS011;73190;50.780;5.658;2024-01-15T04:37:39;26.33;;;12.70;;
83282;SDS011;73190;50.780;5.658;2024-01-15T04:40:07;23.27;;;13.08;;
83282;SDS011;73190;50.780;5.658;2024-01-15T04:42:36;33.18;;;13.53;;
83282;SDS011;73190;50.780;5.658;2024-01-15T04:45:03;24.45;;;12.43;;
83282;SDS011;73190;50.780;5.658;2024-01-15T04:47:31;23.77;;;12.50;;
83282;SDS011;73190;50.780;5.658;2024-01-15T04:49:59;29.65;;;13.32;;
83282;SDS011;73190;50.780;5.658;2024-01-15T04:52:26;26.15;;;13.43;;
83282;SDS011;73190;50.780;5.658;2024-01-15T04:54:54;27.62;;;13.65;;
83282;SDS011;73190;50.780;5.658;2024-01-15T04:57:21;25.57;;;13.80;;
83282;SDS011;73190;50.780;5.658;2024-01-15T04:59:49;27.17;;;13.80;;
83282;SDS011;73190;50.780;5.658;2024-01-15T05:02:16;29.42;;;15.30;;
83282;SDS011;73190;50.780;5.658;2024-01-15T05:04:44;29.07;;;14.70;;
83282;SDS011;73190;50.780;5.658;2024-01-15T05:07:11;29.60;;;14.35;;
83282;SDS011;73190;50.780;5.658;2024-01-15T05:09:39;28.80;;;14.47;;
83282;SDS011;73190;50.780;5.658;2024-01-15T05:12:07;29.07;;;14.90;;
83282;SDS011;73190;50.780;5.658;2024-01-15T05:14:34;37.33;;;16.87;;
83282;SDS011;73190;50.780;5.658;2024-01-15T05:17:02;28.15;;;14.95;;
83282;SDS011;73190;50.780;5.658;2024-01-15T05:19:29;34.00;;;15.35;;
83282;SDS011;73190;50.780;5.658;2024-01-15T05:21:57;33.67;;;16.52;;
83282;SDS011;73190;50.780;5.658;2024-01-15T05:24:24;31.95;;;15.90;;
83282;SDS011;73190;50.780;5.658;2024-01-15T05:26:52;30.15;;;15.75;;
83282;SDS011;73190;50.780;5.658;2024-01-15T05:29:19;31.20;;;15.80;;
83282;SDS011;73190;50.780;5.658;2024-01-15T05:31:47;29.52;;;14.13;;
83282;SDS011;73190;50.780;5.658;2024-01-15T05:34:14;26.10;;;13.50;;
83282;SDS011;73190;50.780;5.658;2024-01-15T05:36:42;28.35;;;14.43;;
83282;SDS011;73190;50.780;5.658;2024-01-15T05:39:09;30.08;;;14.78;;
83282;SDS011;73190;50.780;5.658;2024-01-15T05:41:37;30.62;;;14.28;;
83282;SDS011;73190;50.780;5.658;2024-01-15T05:44:04;30.77;;;15.32;;
83282;SDS011;73190;50.780;5.658;2024-01-15T05:46:32;32.58;;;15.32;;
83282;SDS011;73190;50.780;5.658;2024-01-15T05:48:59;34.33;;;16.52;;
83282;SDS011;73190;50.780;5.658;2024-01-15T05:51:27;32.33;;;17.42;;
83282;SDS011;73190;50.780;5.658;2024-01-15T05:53:54;34.18;;;18.65;;
83282;SDS011;73190;50.780;5.658;2024-01-15T05:56:22;40.08;;;19.95;;
83282;SDS011;73190;50.780;5.658;2024-01-15T05:58:50;43.85;;;20.75;;
83282;SDS011;73190;50.780;5.658;2024-01-15T06:01:18;44.05;;;21.02;;
83282;SDS011;73190;50.780;5.658;2024-01-15T06:03:45;44.33;;;21.27;;
83282;SDS011;73190;50.780;5.658;2024-01-15T06:06:13;38.30;;;19.77;;
83282;SDS011;73190;50.780;5.658;2024-01-15T06:08:40;51.13;;;24.40;;
83282;SDS011;73190;50.780;5.658;2024-01-15T06:11:08;44.88;;;22.45;;
83282;SDS011;73190;50.780;5.658;2024-01-15T06:13:35;44.60;;;22.27;;
83282;SDS011;73190;50.780;5.658;2024-01-15T06:16:05;48.28;;;23.62;;
83282;SDS011;73190;50.780;5.658;2024-01-15T06:18:43;39.40;;;21.23;;
83282;SDS011;73190;50.780;5.658;2024-01-15T06:21:10;39.15;;;21.02;;
83282;SDS011;73190;50.780;5.658;2024-01-15T06:23:40;39.30;;;19.95;;
83282;SDS011;73190;50.780;5.658;2024-01-15T06:26:07;37.75;;;19.62;;
83282;SDS011;73190;50.780;5.658;2024-01-15T06:28:35;37.00;;;19.73;;
83282;SDS011;73190;50.780;5.658;2024-01-15T06:31:03;42.25;;;19.95;;
83282;SDS011;73190;50.780;5.658;2024-01-15T06:33:31;40.20;;;19.70;;
83282;SDS011;73190;50.780;5.658;2024-01-15T06:35:59;35.95;;;19.20;;
83282;SDS011;73190;50.780;5.658;2024-01-15T06:38:26;33.80;;;18.70;;
83282;SDS011;73190;50.780;5.658;2024-01-15T06:40:54;36.17;;;19.23;;
83282;SDS011;73190;50.780;5.658;2024-01-15T06:43:21;36.68;;;19.90;;
83282;SDS011;73190;50.780;5.658;2024-01-15T06:45:49;35.03;;;17.77;;
83282;SDS011;73190;50.780;5.658;2024-01-15T06:48:16;37.20;;;17.55;;
83282;SDS011;73190;50.780;5.658;2024-01-15T06:50:44;32.75;;;17.67;;
83282;SDS011;73190;50.780;5.658;2024-01-15T06:53:11;35.17;;;18.25;;
83282;SDS011;73190;50.780;5.658;2024-01-15T06:55:39;34.30;;;17.75;;
83282;SDS011;73190;50.780;5.658;2024-01-15T06:58:07;29.80;;;15.43;;
83282;SDS011;73190;50.780;5.658;2024-01-15T07:00:34;29.67;;;15.38;;
83282;SDS011;73190;50.780;5.658;2024-01-15T07:03:02;28.47;;;14.83;;
83282;SDS011;73190;50.780;5.658;2024-01-15T07:05:29;27.00;;;14.83;;
83282;SDS011;73190;50.780;5.658;2024-01-15T07:07:58;23.10;;;13.55;;
83282;SDS011;73190;50.780;5.658;2024-01-15T07:10:25;25.88;;;12.95;;
83282;SDS011;73190;50.780;5.658;2024-01-15T07:12:53;23.42;;;13.05;;
83282;SDS011;73190;50.780;5.658;2024-01-15T07:15:20;21.50;;;11.05;;
83282;SDS011;73190;50.780;5.658;2024-01-15T07:17:48;22.27;;;10.38;;
83282;SDS011;73190;50.780;5.658;2024-01-15T07:20:15;19.57;;;10.23;;
83282;SDS011;73190;50.780;5.658;2024-01-15T07:22:45;23.30;;;10.68;;
83282;SDS011;73190;50.780;5.658;2024-01-15T07:25:12;18.12;;;9.93;;
83282;SDS011;73190;50.780;5.658;2024-01-15T07:27:40;15.38;;;8.78;;
83282;SDS011;73190;50.780;5.658;2024-01-15T07:30:10;20.52;;;10.25;;
83282;SDS011;73190;50.780;5.658;2024-01-15T07:32:38;19.77;;;9.75;;
83282;SDS011;73190;50.780;5.658;2024-01-15T07:35:06;19.98;;;10.80;;
83282;SDS011;73190;50.780;5.658;2024-01-15T07:37:34;19.45;;;9.85;;
83282;SDS011;73190;50.780;5.658;2024-01-15T07:40:01;18.10;;;10.53;;
83282;SDS011;73190;50.780;5.658;2024-01-15T07:42:30;18.50;;;10.80;;
83282;SDS011;73190;50.780;5.658;2024-01-15T07:44:57;21.48;;;11.18;;
83282;SDS011;73190;50.780;5.658;2024-01-15T07:47:25;20.23;;;11.85;;
83282;SDS011;73190;50.780;5.658;2024-01-15T07:49:53;21.02;;;11.28;;
83282;SDS011;73190;50.780;5.658;2024-01-15T07:52:21;20.10;;;11.38;;
83282;SDS011;73190;50.780;5.658;2024-01-15T07:54:49;17.02;;;10.88;;
83282;SDS011;73190;50.780;5.658;2024-01-15T07:57:16;17.90;;;11.65;;
83282;SDS011;73190;50.780;5.658;2024-01-15T07:59:44;21.85;;;11.08;;
83282;SDS011;73190;50.780;5.658;2024-01-15T08:02:12;18.23;;;9.90;;
83282;SDS011;73190;50.780;5.658;2024-01-15T08:04:39;18.07;;;11.18;;
83282;SDS011;73190;50.780;5.658;2024-01-15T08:07:07;17.73;;;10.70;;
83282;SDS011;73190;50.780;5.658;2024-01-15T08:09:34;19.40;;;9.85;;
83282;SDS011;73190;50.780;5.658;2024-01-15T08:12:02;17.87;;;9.30;;
83282;SDS011;73190;50.780;5.658;2024-01-15T08:14:31;20.80;;;8.68;;
83282;SDS011;73190;50.780;5.658;2024-01-15T08:16:59;17.20;;;7.65;;
83282;SDS011;73190;50.780;5.658;2024-01-15T08:19:27;14.30;;;7.33;;
83282;SDS011;73190;50.780;5.658;2024-01-15T08:21:56;15.08;;;7.60;;
83282;SDS011;73190;50.780;5.658;2024-01-15T08:24:23;14.40;;;6.42;;
83282;SDS011;73190;50.780;5.658;2024-01-15T08:26:51;11.35;;;6.17;;
83282;SDS011;73190;50.780;5.658;2024-01-15T08:29:18;12.28;;;6.08;;
83282;SDS011;73190;50.780;5.658;2024-01-15T08:31:46;13.88;;;5.97;;
83282;SDS011;73190;50.780;5.658;2024-01-15T08:34:14;12.78;;;5.05;;
83282;SDS011;73190;50.780;5.658;2024-01-15T08:36:42;10.58;;;4.17;;
83282;SDS011;73190;50.780;5.658;2024-01-15T08:39:09;10.50;;;4.42;;
83282;SDS011;73190;50.780;5.658;2024-01-15T08:41:37;11.12;;;4.85;;
83282;SDS011;73190;50.780;5.658;2024-01-15T08:44:04;8.65;;;3.87;;
83282;SDS011;73190;50.780;5.658;2024-01-15T08:46:32;11.25;;;4.30;;
83282;SDS011;73190;50.780;5.658;2024-01-15T08:48:59;11.95;;;4.20;;
83282;SDS011;73190;50.780;5.658;2024-01-15T08:51:27;13.22;;;4.03;;
83282;SDS011;73190;50.780;5.658;2024-01-15T08:53:56;12.05;;;3.62;;
83282;SDS011;73190;50.780;5.658;2024-01-15T08:56:24;9.20;;;4.05;;
83282;SDS011;73190;50.780;5.658;2024-01-15T08:58:53;13.65;;;4.47;;
83282;SDS011;73190;50.780;5.658;2024-01-15T09:01:20;9.95;;;4.05;;
83282;SDS011;73190;50.780;5.658;2024-01-15T09:03:49;9.20;;;4.53;;
83282;SDS011;73190;50.780;5.658;2024-01-15T09:06:16;11.60;;;4.60;;
83282;SDS011;73190;50.780;5.658;2024-01-15T09:08:44;14.63;;;4.40;;
83282;SDS011;73190;50.780;5.658;2024-01-15T09:11:11;15.05;;;5.70;;
83282;SDS011;73190;50.780;5.658;2024-01-15T09:13:39;12.33;;;5.30;;
83282;SDS011;73190;50.780;5.658;2024-01-15T09:16:06;14.47;;;5.28;;
83282;SDS011;73190;50.780;5.658;2024-01-15T09:18:34;10.30;;;5.17;;
83282;SDS011;73190;50.780;5.658;2024-01-15T09:21:03;12.50;;;5.33;;
83282;SDS011;73190;50.780;5.658;2024-01-15T09:23:31;12.10;;;5.90;;
83282;SDS011;73190;50.780;5.658;2024-01-15T09:25:58;16.55;;;6.15;;
83282;SDS011;73190;50.780;5.658;2024-01-15T09:28:26;14.23;;;6.45;;
83282;SDS011;73190;50.780;5.658;2024-01-15T09:30:53;12.45;;;6.62;;
83282;SDS011;73190;50.780;5.658;2024-01-15T09:33:21;17.27;;;7.55;;
83282;SDS011;73190;50.780;5.658;2024-01-15T09:35:49;14.68;;;6.67;;
83282;SDS011;73190;50.780;5.658;2024-01-15T09:38:16;14.35;;;7.00;;
83282;SDS011;73190;50.780;5.658;2024-01-15T09:40:45;14.45;;;7.30;;
83282;SDS011;73190;50.780;5.658;2024-01-15T09:43:13;13.58;;;6.25;;
83282;SDS011;73190;50.780;5.658;2024-01-15T09:45:42;17.90;;;6.92;;
83282;SDS011;73190;50.780;5.658;2024-01-15T09:48:10;14.78;;;7.05;;
83282;SDS011;73190;50.780;5.658;2024-01-15T09:50:38;13.93;;;6.60;;
83282;SDS011;73190;50.780;5.658;2024-01-15T09:53:05;15.75;;;6.17;;
83282;SDS011;73190;50.780;5.658;2024-01-15T09:55:33;16.55;;;6.30;;
83282;SDS011;73190;50.780;5.658;2024-01-15T09:58:01;15.72;;;5.95;;
83282;SDS011;73190;50.780;5.658;2024-01-15T10:00:29;14.80;;;5.70;;
83282;SDS011;73190;50.780;5.658;2024-01-15T10:02:57;9.60;;;5.40;;
83282;SDS011;73190;50.780;5.658;2024-01-15T10:05:26;12.98;;;5.17;;
83282;SDS011;73190;50.780;5.658;2024-01-15T10:07:54;12.58;;;4.70;;
83282;SDS011;73190;50.780;5.658;2024-01-15T10:10:23;13.65;;;4.70;;
83282;SDS011;73190;50.780;5.658;2024-01-15T10:12:51;12.78;;;4.28;;
83282;SDS011;73190;50.780;5.658;2024-01-15T10:15:25;12.95;;;4.35;;
83282;SDS011;73190;50.780;5.658;2024-01-15T10:17:50;12.28;;;4.37;;
83282;SDS011;73190;50.780;5.658;2024-01-15T10:20:17;12.28;;;4.65;;
83282;SDS011;73190;50.780;5.658;2024-01-15T10:22:45;13.15;;;4.12;;
83282;SDS011;73190;50.780;5.658;2024-01-15T10:25:13;10.82;;;3.85;;
83282;SDS011;73190;50.780;5.658;2024-01-15T10:27:41;10.90;;;4.00;;
83282;SDS011;73190;50.780;5.658;2024-01-15T10:30:09;10.70;;;3.50;;
83282;SDS011;73190;50.780;5.658;2024-01-15T10:32:39;11.30;;;3.67;;
83282;SDS011;73190;50.780;5.658;2024-01-15T10:35:07;10.48;;;3.65;;
83282;SDS011;73190;50.780;5.658;2024-01-15T10:37:34;10.75;;;3.70;;
83282;SDS011;73190;50.780;5.658;2024-01-15T10:40:02;8.40;;;2.92;;
83282;SDS011;73190;50.780;5.658;2024-01-15T10:42:33;11.38;;;3.37;;
83282;SDS011;73190;50.780;5.658;2024-01-15T10:45:01;14.58;;;3.17;;
83282;SDS011;73190;50.780;5.658;2024-01-15T10:47:29;10.05;;;3.55;;
83282;SDS011;73190;50.780;5.658;2024-01-15T10:49:57;11.38;;;3.22;;
83282;SDS011;73190;50.780;5.658;2024-01-15T10:52:26;10.15;;;3.33;;
83282;SDS011;73190;50.780;5.658;2024-01-15T10:54:55;10.87;;;3.53;;
83282;SDS011;73190;50.780;5.658;2024-01-15T10:57:23;10.48;;;2.90;;
83282;SDS011;73190;50.780;5.658;2024-01-15T10:59:52;10.58;;;2.98;;
83282;SDS011;73190;50.780;5.658;2024-01-15T11:02:20;8.18;;;2.85;;
83282;SDS011;73190;50.780;5.658;2024-01-15T11:04:48;8.55;;;3.08;;
83282;SDS011;73190;50.780;5.658;2024-01-15T11:07:15;11.15;;;2.98;;
83282;SDS011;73190;50.780;5.658;2024-01-15T11:09:45;14.50;;;3.02;;
83282;SDS011;73190;50.780;5.658;2024-01-15T11:12:13;9.73;;;2.40;;
83282;SDS011;73190;50.780;5.658;2024-01-15T11:14:46;12.05;;;3.27;;
83282;SDS011;73190;50.780;5.658;2024-01-15T11:17:20;8.63;;;2.80;;
83282;SDS011;73190;50.780;5.658;2024-01-15T11:19:48;11.28;;;2.87;;
83282;SDS011;73190;50.780;5.658;2024-01-15T11:25:03;12.55;;;2.77;;
83282;SDS011;73190;50.780;5.658;2024-01-15T11:27:44;8.33;;;2.75;;
83282;SDS011;73190;50.780;5.658;2024-01-15T11:30:19;8.05;;;2.08;;
83282;SDS011;73190;50.780;5.658;2024-01-15T11:32:48;9.20;;;2.50;;
83282;SDS011;73190;50.780;5.658;2024-01-15T11:35:15;10.00;;;2.62;;
83282;SDS011;73190;50.780;5.658;2024-01-15T11:40:22;9.58;;;2.05;;
83282;SDS011;73190;50.780;5.658;2024-01-15T11:43:02;8.13;;;2.20;;
83282;SDS011;73190;50.780;5.658;2024-01-15T11:45:30;9.63;;;1.80;;
83282;SDS011;73190;50.780;5.658;2024-01-15T11:48:09;9.98;;;2.12;;
83282;SDS011;73190;50.780;5.658;2024-01-15T11:50:43;14.83;;;2.58;;
83282;SDS011;73190;50.780;5.658;2024-01-15T11:53:16;10.13;;;2.02;;
83282;SDS011;73190;50.780;5.658;2024-01-15T11:55:57;12.75;;;2.22;;
83282;SDS011;73190;50.780;5.658;2024-01-15T11:58:25;11.20;;;2.27;;
83282;SDS011;73190;50.780;5.658;2024-01-15T12:00:53;9.45;;;1.55;;
83282;SDS011;73190;50.780;5.658;2024-01-15T12:03:22;8.33;;;1.70;;
83282;SDS011;73190;50.780;5.658;2024-01-15T12:05:51;7.00;;;1.82;;
83282;SDS011;73190;50.780;5.658;2024-01-15T12:08:23;7.92;;;1.52;;
83282;SDS011;73190;50.780;5.658;2024-01-15T12:10:51;7.75;;;1.85;;
83282;SDS011;73190;50.780;5.658;2024-01-15T12:13:20;8.28;;;1.82;;
83282;SDS011;73190;50.780;5.658;2024-01-15T12:15:48;8.93;;;1.52;;
83282;SDS011;73190;50.780;5.658;2024-01-15T12:18:16;8.60;;;1.40;;
83282;SDS011;73190;50.780;5.658;2024-01-15T12:20:45;10.83;;;1.37;;
83282;SDS011;73190;50.780;5.658;2024-01-15T12:23:13;10.30;;;1.50;;
83282;SDS011;73190;50.780;5.658;2024-01-15T12:25:42;10.95;;;1.70;;
83282;SDS011;73190;50.780;5.658;2024-01-15T12:28:10;9.43;;;1.67;;
83282;SDS011;73190;50.780;5.658;2024-01-15T12:30:38;7.35;;;1.65;;
83282;SDS011;73190;50.780;5.658;2024-01-15T12:33:06;9.53;;;1.80;;
83282;SDS011;73190;50.780;5.658;2024-01-15T12:35:35;7.35;;;1.90;;
83282;SDS011;73190;50.780;5.658;2024-01-15T12:38:02;12.40;;;1.80;;
83282;SDS011;73190;50.780;5.658;2024-01-15T12:40:30;12.95;;;2.05;;
83282;SDS011;73190;50.780;5.658;2024-01-15T12:43:02;6.30;;;1.75;;
83282;SDS011;73190;50.780;5.658;2024-01-15T12:45:30;6.08;;;1.60;;
83282;SDS011;73190;50.780;5.658;2024-01-15T12:47:58;13.80;;;1.92;;
83282;SDS011;73190;50.780;5.658;2024-01-15T12:50:26;12.10;;;2.10;;
83282;SDS011;73190;50.780;5.658;2024-01-15T12:52:53;8.08;;;1.85;;
83282;SDS011;73190;50.780;5.658;2024-01-15T12:55:21;6.10;;;2.20;;
83282;SDS011;73190;50.780;5.658;2024-01-15T12:57:49;11.25;;;1.98;;
83282;SDS011;73190;50.780;5.658;2024-01-15T13:00:19;9.93;;;2.17;;
83282;SDS011;73190;50.780;5.658;2024-01-15T13:02:46;10.85;;;2.02;;
83282;SDS011;73190;50.780;5.658;2024-01-15T13:05:15;11.40;;;2.65;;
83282;SDS011;73190;50.780;5.658;2024-01-15T13:07:43;8.15;;;2.00;;
83282;SDS011;73190;50.780;5.658;2024-01-15T13:10:11;7.72;;;1.75;;
83282;SDS011;73190;50.780;5.658;2024-01-15T13:12:40;5.60;;;1.77;;
83282;SDS011;73190;50.780;5.658;2024-01-15T13:15:07;5.35;;;2.02;;
83282;SDS011;73190;50.780;5.658;2024-01-15T13:17:38;5.00;;;1.85;;
83282;SDS011;73190;50.780;5.658;2024-01-15T13:20:06;5.03;;;2.20;;
83282;SDS011;73190;50.780;5.658;2024-01-15T13:22:34;5.45;;;1.80;;
83282;SDS011;73190;50.780;5.658;2024-01-15T13:25:03;5.77;;;1.80;;
83282;SDS011;73190;50.780;5.658;2024-01-15T13:27:33;13.32;;;3.37;;
83282;SDS011;73190;50.780;5.658;2024-01-15T13:30:03;9.18;;;1.95;;
83282;SDS011;73190;50.780;5.658;2024-01-15T13:32:33;8.68;;;1.82;;
83282;SDS011;73190;50.780;5.658;2024-01-15T13:35:01;6.70;;;1.45;;
83282;SDS011;73190;50.780;5.658;2024-01-15T13:37:30;7.35;;;2.00;;
83282;SDS011;73190;50.780;5.658;2024-01-15T13:39:58;9.00;;;2.30;;
83282;SDS011;73190;50.780;5.658;2024-01-15T13:42:25;7.55;;;1.80;;
83282;SDS011;73190;50.780;5.658;2024-01-15T13:44:53;7.78;;;1.80;;
83282;SDS011;73190;50.780;5.658;2024-01-15T13:47:20;5.55;;;1.70;;
83282;SDS011;73190;50.780;5.658;2024-01-15T13:49:48;7.47;;;1.75;;
83282;SDS011;73190;50.780;5.658;2024-01-15T13:52:15;5.42;;;1.90;;
83282;SDS011;73190;50.780;5.658;2024-01-15T13:54:43;6.67;;;1.92;;
83282;SDS011;73190;50.780;5.658;2024-01-15T13:57:11;5.33;;;2.10;;
83282;SDS011;73190;50.780;5.658;2024-01-15T13:59:38;3.02;;;1.57;;
83282;SDS011;73190;50.780;5.658;2024-01-15T14:02:06;4.95;;;1.90;;
83282;SDS011;73190;50.780;5.658;2024-01-15T14:04:35;5.50;;;1.70;;
83282;SDS011;73190;50.780;5.658;2024-01-15T14:07:03;4.78;;;1.45;;
83282;SDS011;73190;50.780;5.658;2024-01-15T14:09:32;3.45;;;1.60;;
83282;SDS011;73190;50.780;5.658;2024-01-15T14:11:59;6.95;;;1.52;;
83282;SDS011;73190;50.780;5.658;2024-01-15T14:14:28;5.00;;;1.42;;
83282;SDS011;73190;50.780;5.658;2024-01-15T14:16:55;3.17;;;1.15;;
83282;SDS011;73190;50.780;5.658;2024-01-15T14:19:23;6.55;;;1.20;;
83282;SDS011;73190;50.780;5.658;2024-01-15T14:21:50;4.50;;;0.88;;
83282;SDS011;73190;50.780;5.658;2024-01-15T14:24:18;3.08;;;0.80;;
83282;SDS011;73190;50.780;5.658;2024-01-15T14:26:45;2.35;;;0.40;;
83282;SDS011;73190;50.780;5.658;2024-01-15T14:29:13;2.30;;;0.60;;
83282;SDS011;73190;50.780;5.658;2024-01-15T14:31:40;2.67;;;0.60;;
83282;SDS011;73190;50.780;5.658;2024-01-15T14:34:08;4.20;;;1.02;;
83282;SDS011;73190;50.780;5.658;2024-01-15T14:36:37;2.02;;;0.57;;
83282;SDS011;73190;50.780;5.658;2024-01-15T14:39:04;2.62;;;0.90;;
83282;SDS011;73190;50.780;5.658;2024-01-15T14:41:32;3.02;;;0.57;;